createdAt,value
2018-09-12T00:00:03.317Z,17.33
2018-09-12T00:01:09.537Z,17.35
2018-09-12T00:02:15.765Z,17.26
2018-09-12T00:03:22.038Z,17.31
2018-09-12T00:04:28.312Z,17.26
2018-09-12T00:05:34.569Z,17.43
2018-09-12T00:06:40.785Z,17.41
2018-09-12T00:07:47.041Z,17.27
2018-09-12T00:08:53.325Z,17.30
2018-09-12T00:09:59.548Z,17.36
2018-09-12T00:11:06.763Z,17.29
2018-09-12T00:12:13.039Z,17.31
2018-09-12T00:13:19.267Z,17.38
2018-09-12T00:14:25.514Z,17.40
2018-09-12T00:15:31.780Z,17.35
2018-09-12T00:16:38.044Z,17.35
2018-09-12T00:17:44.277Z,17.52
2018-09-12T00:18:50.538Z,17.48
2018-09-12T00:19:56.783Z,17.54
2018-09-12T00:21:03.095Z,17.50
2018-09-12T00:22:09.586Z,17.34
2018-09-12T00:23:15.881Z,17.40
2018-09-12T00:24:22.111Z,17.35
2018-09-12T00:25:28.349Z,17.34
2018-09-12T00:26:34.637Z,17.43
2018-09-12T00:27:40.908Z,17.44
2018-09-12T00:28:47.161Z,17.46
2018-09-12T00:29:53.408Z,17.41
2018-09-12T00:30:59.311Z,17.56
2018-09-12T00:32:05.573Z,17.71
2018-09-12T00:33:11.813Z,17.68
2018-09-12T00:34:18.044Z,17.74
2018-09-12T00:35:24.345Z,17.71
2018-09-12T00:36:30.594Z,17.65
2018-09-12T00:37:36.871Z,17.67
2018-09-12T00:38:43.117Z,17.58
2018-09-12T00:39:49.370Z,17.53
2018-09-12T00:40:55.615Z,17.53
2018-09-12T00:42:01.888Z,17.67
2018-09-12T00:43:07.796Z,17.61
2018-09-12T00:44:14.042Z,17.63
2018-09-12T00:45:20.284Z,17.55
2018-09-12T00:46:26.529Z,17.66
2018-09-12T00:47:32.796Z,17.68
2018-09-12T00:48:39.071Z,17.71
2018-09-12T00:49:46.249Z,17.69
2018-09-12T00:50:52.522Z,17.50
2018-09-12T00:51:58.798Z,17.47
2018-09-12T00:53:05.091Z,17.53
2018-09-12T00:54:11.356Z,17.36
2018-09-12T00:55:17.592Z,17.25
2018-09-12T00:56:23.813Z,17.13
2018-09-12T00:57:30.045Z,16.97
2018-09-12T00:58:36.330Z,17.03
2018-09-12T00:59:42.561Z,16.91
2018-09-12T01:00:48.795Z,16.88
2018-09-12T01:01:55.028Z,16.84
2018-09-12T01:03:01.286Z,16.72
2018-09-12T01:04:07.524Z,16.72
2018-09-12T01:05:13.793Z,16.65
2018-09-12T01:06:20.049Z,16.80
2018-09-12T01:07:26.281Z,17.13
2018-09-12T01:08:32.582Z,17.01
2018-09-12T01:09:38.568Z,17.03
2018-09-12T01:10:44.533Z,16.97
2018-09-12T01:11:50.757Z,16.95
2018-09-12T01:12:57.005Z,16.98
2018-09-12T01:14:03.290Z,17.12
2018-09-12T01:15:09.558Z,17.05
2018-09-12T01:16:15.834Z,17.02
2018-09-12T01:17:22.086Z,16.94
2018-09-12T01:18:28.696Z,16.82
2018-09-12T01:19:34.955Z,16.80
2018-09-12T01:20:41.210Z,16.80
2018-09-12T01:21:47.439Z,16.80
2018-09-12T01:22:53.724Z,16.85
2018-09-12T01:24:00.014Z,16.79
2018-09-12T01:25:06.236Z,16.61
2018-09-12T01:26:12.472Z,16.66
2018-09-12T01:27:18.697Z,16.68
2018-09-12T01:28:24.968Z,16.66
2018-09-12T01:29:31.247Z,16.75
2018-09-12T01:30:37.489Z,16.71
2018-09-12T01:31:43.699Z,16.72
2018-09-12T01:32:49.933Z,16.63
2018-09-12T01:33:56.198Z,16.50
2018-09-12T01:35:02.476Z,16.48
2018-09-12T01:36:08.772Z,16.42
2018-09-12T01:37:15.693Z,16.37
2018-09-12T01:38:21.673Z,16.28
2018-09-12T01:39:28.095Z,16.52
2018-09-12T01:40:34.336Z,16.41
2018-09-12T01:41:40.596Z,16.43
2018-09-12T01:42:46.571Z,16.28
2018-09-12T01:43:52.798Z,16.41
2018-09-12T01:44:59.084Z,16.39
2018-09-12T01:46:04.359Z,16.40
2018-09-12T01:47:10.591Z,16.28
2018-09-12T01:48:16.877Z,16.29
2018-09-12T01:49:23.170Z,16.37
2018-09-12T01:50:29.437Z,16.33
2018-09-12T01:51:35.665Z,16.46
2018-09-12T01:52:41.738Z,16.49
2018-09-12T01:53:47.996Z,16.51
2018-09-12T01:54:54.266Z,16.48
2018-09-12T01:56:00.532Z,16.43
2018-09-12T01:57:06.787Z,16.33
2018-09-12T01:58:12.421Z,16.40
2018-09-12T01:59:18.392Z,16.33
2018-09-12T02:00:24.425Z,16.33
2018-09-12T02:01:30.693Z,16.19
2018-09-12T02:02:36.943Z,16.32
2018-09-12T02:03:43.194Z,16.44
2018-09-12T02:04:49.421Z,16.24
2018-09-12T02:05:55.078Z,16.26
2018-09-12T02:07:01.344Z,16.22
2018-09-12T02:08:07.604Z,16.15
2018-09-12T02:09:13.840Z,16.28
2018-09-12T02:10:21.058Z,16.18
2018-09-12T02:11:27.270Z,16.28
2018-09-12T02:12:33.545Z,16.39
2018-09-12T02:13:39.851Z,16.38
2018-09-12T02:14:46.104Z,16.42
2018-09-12T02:15:52.402Z,16.56
2018-09-12T02:16:58.652Z,16.62
2018-09-12T02:18:04.924Z,16.69
2018-09-12T02:19:11.216Z,16.70
2018-09-12T02:20:17.475Z,16.72
2018-09-12T02:21:23.727Z,16.76
2018-09-12T02:22:29.993Z,16.88
2018-09-12T02:23:36.300Z,16.97
2018-09-12T02:24:42.310Z,16.93
2018-09-12T02:25:48.265Z,16.95
2018-09-12T02:26:54.285Z,16.94
2018-09-12T02:28:00.511Z,16.81
2018-09-12T02:29:06.788Z,16.93
2018-09-12T02:30:12.886Z,17.00
2018-09-12T02:31:19.135Z,17.18
2018-09-12T02:32:25.386Z,17.27
2018-09-12T02:33:31.445Z,17.25
2018-09-12T02:34:37.704Z,17.24
2018-09-12T02:35:43.753Z,17.15
2018-09-12T02:36:49.661Z,17.07
2018-09-12T02:37:55.917Z,16.99
2018-09-12T02:39:02.161Z,17.08
2018-09-12T02:40:07.710Z,16.99
2018-09-12T02:41:14.007Z,16.97
2018-09-12T02:42:20.269Z,17.02
2018-09-12T02:43:26.486Z,16.96
2018-09-12T02:44:32.707Z,17.07
2018-09-12T02:45:39.010Z,17.07
2018-09-12T02:46:45.245Z,16.98
2018-09-12T02:47:51.479Z,16.95
2018-09-12T02:48:57.752Z,16.98
2018-09-12T02:50:03.657Z,16.97
2018-09-12T02:51:09.929Z,17.03
2018-09-12T02:52:16.182Z,16.80
2018-09-12T02:53:22.449Z,16.80
2018-09-12T02:54:28.750Z,16.83
2018-09-12T02:55:35.063Z,16.81
2018-09-12T02:56:41.276Z,16.81
2018-09-12T02:57:47.524Z,16.86
2018-09-12T02:58:53.784Z,16.90
2018-09-12T03:00:00.011Z,16.86
2018-09-12T03:01:05.966Z,16.87
2018-09-12T03:02:12.210Z,16.94
2018-09-12T03:03:22.807Z,16.81
2018-09-12T03:04:29.025Z,16.86
2018-09-12T03:05:34.992Z,16.86
2018-09-12T03:06:41.259Z,16.86
2018-09-12T03:07:47.562Z,16.83
2018-09-12T03:08:53.981Z,16.75
2018-09-12T03:10:00.209Z,16.59
2018-09-12T03:11:06.327Z,16.46
2018-09-12T03:12:12.556Z,16.49
2018-09-12T03:13:18.814Z,16.56
2018-09-12T03:14:25.052Z,16.54
2018-09-12T03:15:31.010Z,16.47
2018-09-12T03:16:37.298Z,16.46
2018-09-12T03:17:43.277Z,16.42
2018-09-12T03:18:49.189Z,16.50
2018-09-12T03:19:55.474Z,16.65
2018-09-12T03:21:01.923Z,16.64
2018-09-12T03:22:08.279Z,16.73
2018-09-12T03:23:15.491Z,16.85
2018-09-12T03:24:21.539Z,16.85
2018-09-12T03:25:27.808Z,16.93
2018-09-12T03:26:33.877Z,16.86
2018-09-12T03:27:39.776Z,16.82
2018-09-12T03:28:46.022Z,16.81
2018-09-12T03:29:52.270Z,16.78
2018-09-12T03:30:58.502Z,16.55
2018-09-12T03:32:04.789Z,16.49
2018-09-12T03:33:11.038Z,16.21
2018-09-12T03:34:17.303Z,16.12
2018-09-12T03:35:23.543Z,16.05
2018-09-12T03:36:29.808Z,16.09
2018-09-12T03:37:36.044Z,16.26
2018-09-12T03:38:42.276Z,16.37
2018-09-12T03:39:48.581Z,16.48
2018-09-12T03:40:54.836Z,16.56
2018-09-12T03:42:01.140Z,16.55
2018-09-12T03:43:07.023Z,16.45
2018-09-12T03:44:13.263Z,16.32
2018-09-12T03:45:19.510Z,16.25
2018-09-12T03:46:25.805Z,16.10
2018-09-12T03:47:32.045Z,16.02
2018-09-12T03:48:38.377Z,15.97
2018-09-12T03:49:44.653Z,15.97
2018-09-12T03:50:50.863Z,15.99
2018-09-12T03:51:57.139Z,15.93
2018-09-12T03:53:03.460Z,15.90
2018-09-12T03:54:09.696Z,15.93
2018-09-12T03:55:15.974Z,15.94
2018-09-12T03:56:22.264Z,15.98
2018-09-12T03:57:28.522Z,16.10
2018-09-12T03:58:34.760Z,16.13
2018-09-12T03:59:41.033Z,16.08
2018-09-12T04:00:47.273Z,16.22
2018-09-12T04:01:53.636Z,16.22
2018-09-12T04:02:59.624Z,16.07
2018-09-12T04:04:05.518Z,16.02
2018-09-12T04:05:11.770Z,15.93
2018-09-12T04:06:18.008Z,15.90
2018-09-12T04:07:24.284Z,15.80
2018-09-12T04:08:30.501Z,15.79
2018-09-12T04:09:36.721Z,15.88
2018-09-12T04:10:42.984Z,16.00
2018-09-12T04:11:49.257Z,16.07
2018-09-12T04:12:55.515Z,16.13
2018-09-12T04:14:01.774Z,16.04
2018-09-12T04:15:07.338Z,16.02
2018-09-12T04:16:13.552Z,15.97
2018-09-12T04:17:19.872Z,15.90
2018-09-12T04:18:26.119Z,15.77
2018-09-12T04:19:32.381Z,15.75
2018-09-12T04:20:38.606Z,15.67
2018-09-12T04:21:44.935Z,15.67
2018-09-12T04:22:51.177Z,15.66
2018-09-12T04:23:57.456Z,15.68
2018-09-12T04:25:03.376Z,15.55
2018-09-12T04:26:09.450Z,15.49
2018-09-12T04:27:15.713Z,15.39
2018-09-12T04:28:26.261Z,15.49
2018-09-12T04:29:32.514Z,15.68
2018-09-12T04:30:38.817Z,15.80
2018-09-12T04:31:45.213Z,15.90
2018-09-12T04:32:51.438Z,15.92
2018-09-12T04:33:57.672Z,15.86
2018-09-12T04:35:03.933Z,15.82
2018-09-12T04:36:10.245Z,15.78
2018-09-12T04:37:16.550Z,15.59
2018-09-12T04:38:22.789Z,15.66
2018-09-12T04:39:29.095Z,15.65
2018-09-12T04:40:35.357Z,15.63
2018-09-12T04:41:41.630Z,15.74
2018-09-12T04:42:47.978Z,15.83
2018-09-12T04:43:54.115Z,15.72
2018-09-12T04:45:00.340Z,15.66
2018-09-12T04:46:06.621Z,15.62
2018-09-12T04:47:12.636Z,15.58
2018-09-12T04:48:19.173Z,15.67
2018-09-12T04:49:25.271Z,15.66
2018-09-12T04:50:31.609Z,15.68
2018-09-12T04:51:37.857Z,15.62
2018-09-12T04:52:44.097Z,15.47
2018-09-12T04:53:50.388Z,15.38
2018-09-12T04:54:56.698Z,15.38
2018-09-12T04:56:02.964Z,15.33
2018-09-12T04:57:09.197Z,15.45
2018-09-12T04:58:15.440Z,15.43
2018-09-12T04:59:21.663Z,15.39
2018-09-12T05:00:27.907Z,15.32
2018-09-12T05:01:34.186Z,15.23
2018-09-12T05:02:40.457Z,15.04
2018-09-12T05:03:46.680Z,15.03
2018-09-12T05:04:52.924Z,15.08
2018-09-12T05:05:59.175Z,15.19
2018-09-12T05:07:05.466Z,15.09
2018-09-12T05:08:11.746Z,15.02
2018-09-12T05:09:18.012Z,14.95
2018-09-12T05:10:24.276Z,14.90
2018-09-12T05:11:30.552Z,14.86
2018-09-12T05:12:36.814Z,14.87
2018-09-12T05:13:43.089Z,14.87
2018-09-12T05:14:49.337Z,14.85
2018-09-12T05:15:55.629Z,15.05
2018-09-12T05:17:01.835Z,15.06
2018-09-12T05:18:08.091Z,15.06
2018-09-12T05:19:14.307Z,15.14
2018-09-12T05:20:20.596Z,15.25
2018-09-12T05:21:26.980Z,15.14
2018-09-12T05:22:33.199Z,15.10
2018-09-12T05:23:39.501Z,15.04
2018-09-12T05:24:45.716Z,15.10
2018-09-12T05:25:51.976Z,15.14
2018-09-12T05:26:58.228Z,15.10
2018-09-12T05:28:04.499Z,15.05
2018-09-12T05:29:10.771Z,14.98
2018-09-12T05:30:17.025Z,15.02
2018-09-12T05:31:23.268Z,15.13
2018-09-12T05:32:29.568Z,15.28
2018-09-12T05:33:35.806Z,15.50
2018-09-12T05:34:42.042Z,15.61
2018-09-12T05:35:48.294Z,15.68
2018-09-12T05:36:54.592Z,15.78
2018-09-12T05:38:00.865Z,15.94
2018-09-12T05:39:06.188Z,15.96
2018-09-12T05:40:12.435Z,16.04
2018-09-12T05:41:18.755Z,16.21
2018-09-12T05:42:25.020Z,16.33
2018-09-12T05:43:31.261Z,16.53
2018-09-12T05:44:37.492Z,16.52
2018-09-12T05:45:43.739Z,16.68
2018-09-12T05:46:49.997Z,16.75
2018-09-12T05:47:56.255Z,16.79
2018-09-12T05:49:02.497Z,16.87
2018-09-12T05:50:08.842Z,16.96
2018-09-12T05:51:15.232Z,16.97
2018-09-12T05:52:21.601Z,17.14
2018-09-12T05:53:27.869Z,17.16
2018-09-12T05:54:34.096Z,17.26
2018-09-12T05:55:40.423Z,17.31
2018-09-12T05:56:46.656Z,17.45
2018-09-12T05:57:52.905Z,17.48
2018-09-12T05:58:59.158Z,17.58
2018-09-12T06:00:04.453Z,17.59
2018-09-12T06:01:10.714Z,17.50
2018-09-12T06:02:16.992Z,17.57
2018-09-12T06:03:23.607Z,17.67
2018-09-12T06:04:29.847Z,17.86
2018-09-12T06:05:36.109Z,18.00
2018-09-12T06:06:42.363Z,18.01
2018-09-12T06:07:48.613Z,18.08
2018-09-12T06:08:54.849Z,18.06
2018-09-12T06:10:01.119Z,18.16
2018-09-12T06:11:07.391Z,18.18
2018-09-12T06:12:13.644Z,18.27
2018-09-12T06:13:19.930Z,18.28
2018-09-12T06:14:26.171Z,18.44
2018-09-12T06:15:32.392Z,18.53
2018-09-12T06:16:38.690Z,18.63
2018-09-12T06:17:44.910Z,18.65
2018-09-12T06:18:50.955Z,18.71
2018-09-12T06:19:56.888Z,18.73
2018-09-12T06:21:03.164Z,18.85
2018-09-12T06:22:09.400Z,18.72
2018-09-12T06:23:15.742Z,18.66
2018-09-12T06:24:22.059Z,18.71
2018-09-12T06:25:28.308Z,18.79
2018-09-12T06:26:34.603Z,18.91
2018-09-12T06:27:40.882Z,18.89
2018-09-12T06:28:47.146Z,18.98
2018-09-12T06:29:53.375Z,19.06
2018-09-12T06:30:59.621Z,19.14
2018-09-12T06:32:05.979Z,19.20
2018-09-12T06:33:12.266Z,19.29
2018-09-12T06:34:18.526Z,19.29
2018-09-12T06:35:24.758Z,19.24
2018-09-12T06:36:31.016Z,19.27
2018-09-12T06:37:37.235Z,19.37
2018-09-12T06:38:43.539Z,19.55
2018-09-12T06:39:49.958Z,19.64
2018-09-12T06:40:56.268Z,19.73
2018-09-12T06:42:02.562Z,19.80
2018-09-12T06:43:09.035Z,19.87
2018-09-12T06:44:15.386Z,19.92
2018-09-12T06:45:21.664Z,19.85
2018-09-12T06:46:27.929Z,19.96
2018-09-12T06:47:34.224Z,20.07
2018-09-12T06:48:40.487Z,20.07
2018-09-12T06:49:46.485Z,20.08
2018-09-12T06:50:52.483Z,19.95
2018-09-12T06:51:58.743Z,20.13
2018-09-12T06:53:04.999Z,20.12
2018-09-12T06:54:11.301Z,20.13
2018-09-12T06:55:17.583Z,20.04
2018-09-12T06:56:23.628Z,20.15
2018-09-12T06:57:29.862Z,20.28
2018-09-12T06:58:35.854Z,20.46
2018-09-12T06:59:42.090Z,20.41
2018-09-12T07:00:48.467Z,20.48
2018-09-12T07:01:54.790Z,20.67
2018-09-12T07:03:01.055Z,20.76
2018-09-12T07:04:07.344Z,20.82
2018-09-12T07:05:13.572Z,20.91
2018-09-12T07:06:19.455Z,21.00
2018-09-12T07:07:25.731Z,20.91
2018-09-12T07:08:32.012Z,21.01
2018-09-12T07:09:38.844Z,21.08
2018-09-12T07:10:45.265Z,21.15
2018-09-12T07:11:51.557Z,21.05
2018-09-12T07:12:57.859Z,21.03
2018-09-12T07:14:04.173Z,21.01
2018-09-12T07:15:10.099Z,21.10
2018-09-12T07:16:16.377Z,21.13
2018-09-12T07:17:22.596Z,21.21
2018-09-12T07:18:28.856Z,21.37
2018-09-12T07:19:35.128Z,21.42
2018-09-12T07:20:41.381Z,21.46
2018-09-12T07:21:47.614Z,21.65
2018-09-12T07:22:53.961Z,21.69
2018-09-12T07:24:00.326Z,21.78
2018-09-12T07:25:05.845Z,21.80
2018-09-12T07:26:12.104Z,21.84
2018-09-12T07:27:18.353Z,21.94
2018-09-12T07:28:24.604Z,22.03
2018-09-12T07:29:30.818Z,22.11
2018-09-12T07:30:37.131Z,22.09
2018-09-12T07:31:43.252Z,22.06
2018-09-12T07:32:49.469Z,22.03
2018-09-12T07:33:55.704Z,22.15
2018-09-12T07:35:01.978Z,22.20
2018-09-12T07:36:08.200Z,22.28
2018-09-12T07:37:14.405Z,22.34
2018-09-12T07:38:20.757Z,22.49
2018-09-12T07:39:27.005Z,22.48
2018-09-12T07:40:33.305Z,22.51
2018-09-12T07:41:39.338Z,22.58
2018-09-12T07:42:45.744Z,22.54
2018-09-12T07:43:51.737Z,22.62
2018-09-12T07:44:57.945Z,22.69
2018-09-12T07:46:04.196Z,22.64
2018-09-12T07:47:10.424Z,22.75
2018-09-12T07:48:16.650Z,22.76
2018-09-12T07:49:22.885Z,22.83
2018-09-12T07:50:28.880Z,22.95
2018-09-12T07:51:35.128Z,22.95
2018-09-12T07:52:41.334Z,22.98
2018-09-12T07:53:47.543Z,23.07
2018-09-12T07:54:53.797Z,23.13
2018-09-12T07:55:59.823Z,23.26
2018-09-12T07:57:05.939Z,23.29
2018-09-12T07:58:12.201Z,23.28
2018-09-12T07:59:18.435Z,23.34
2018-09-12T08:00:24.697Z,23.41
2018-09-12T08:01:30.860Z,23.35
2018-09-12T08:02:37.080Z,23.47
2018-09-12T08:03:43.300Z,23.45
2018-09-12T08:04:49.522Z,23.51
2018-09-12T08:05:55.805Z,23.55
2018-09-12T08:07:02.057Z,23.65
2018-09-12T08:08:08.282Z,23.68
2018-09-12T08:09:14.548Z,23.72
2018-09-12T08:10:24.815Z,23.80
2018-09-12T08:11:31.072Z,23.81
2018-09-12T08:12:37.282Z,23.87
2018-09-12T08:13:43.529Z,23.88
2018-09-12T08:14:49.783Z,23.79
2018-09-12T08:15:56.009Z,23.91
2018-09-12T08:17:02.067Z,24.01
2018-09-12T08:18:08.459Z,24.07
2018-09-12T08:19:14.733Z,24.03
2018-09-12T08:20:20.950Z,24.17
2018-09-12T08:21:27.222Z,24.25
2018-09-12T08:22:33.188Z,24.29
2018-09-12T08:23:39.419Z,24.33
2018-09-12T08:24:45.381Z,24.39
2018-09-12T08:25:51.624Z,24.39
2018-09-12T08:26:57.541Z,24.49
2018-09-12T08:28:03.762Z,24.49
2018-09-12T08:29:10.019Z,24.57
2018-09-12T08:30:15.594Z,24.62
2018-09-12T08:31:21.886Z,24.68
2018-09-12T08:32:28.109Z,24.74
2018-09-12T08:33:34.321Z,24.88
2018-09-12T08:34:40.581Z,24.98
2018-09-12T08:35:46.800Z,24.99
2018-09-12T08:36:53.077Z,25.07
2018-09-12T08:37:59.288Z,25.09
2018-09-12T08:39:04.836Z,25.06
2018-09-12T08:40:10.837Z,25.14
2018-09-12T08:41:17.047Z,25.19
2018-09-12T08:42:23.346Z,25.12
2018-09-12T08:43:29.795Z,25.19
2018-09-12T08:44:36.014Z,25.20
2018-09-12T08:45:42.281Z,25.11
2018-09-12T08:46:48.182Z,25.09
2018-09-12T08:47:54.679Z,25.18
2018-09-12T08:49:00.596Z,25.22
2018-09-12T08:50:06.220Z,25.20
2018-09-12T08:51:12.448Z,25.41
2018-09-12T08:52:18.709Z,25.51
2018-09-12T08:53:24.952Z,25.44
2018-09-12T08:54:31.221Z,25.49
2018-09-12T08:55:37.493Z,25.63
2018-09-12T08:56:43.814Z,25.66
2018-09-12T08:57:50.236Z,25.57
2018-09-12T08:58:56.504Z,25.69
2018-09-12T09:00:02.628Z,25.70
2018-09-12T09:01:09.062Z,25.70
2018-09-12T09:02:15.317Z,25.75
2018-09-12T09:03:21.551Z,25.77
2018-09-12T09:04:27.476Z,25.72
2018-09-12T09:05:44.516Z,25.62
2018-09-12T09:06:50.779Z,25.63
2018-09-12T09:07:57.008Z,25.69
2018-09-12T09:09:03.223Z,25.66
2018-09-12T09:10:09.490Z,25.80
2018-09-12T09:11:15.728Z,25.66
2018-09-12T09:12:22.725Z,25.85
2018-09-12T09:13:28.971Z,26.00
2018-09-12T09:14:35.210Z,25.95
2018-09-12T09:15:41.432Z,26.05
2018-09-12T09:16:47.667Z,26.12
2018-09-12T09:17:53.961Z,25.99
2018-09-12T09:19:00.428Z,25.98
2018-09-12T09:20:06.884Z,26.08
2018-09-12T09:21:13.124Z,26.05
2018-09-12T09:22:19.393Z,26.07
2018-09-12T09:23:25.611Z,25.96
2018-09-12T09:24:31.845Z,26.01
2018-09-12T09:25:37.492Z,26.17
2018-09-12T09:26:43.737Z,26.18
2018-09-12T09:27:49.989Z,26.23
2018-09-12T09:28:56.206Z,26.31
2018-09-12T09:30:02.451Z,26.16
2018-09-12T09:31:08.664Z,26.26
2018-09-12T09:32:14.919Z,26.43
2018-09-12T09:33:21.170Z,26.42
2018-09-12T09:34:27.119Z,26.60
2018-09-12T09:35:33.541Z,26.65
2018-09-12T09:36:39.566Z,26.64
2018-09-12T09:37:45.520Z,26.72
2018-09-12T09:38:51.732Z,26.68
2018-09-12T09:39:57.664Z,26.64
2018-09-12T09:41:03.646Z,26.75
2018-09-12T09:42:09.632Z,26.89
2018-09-12T09:43:15.559Z,26.97
2018-09-12T09:44:21.579Z,26.89
2018-09-12T09:45:27.822Z,26.80
2018-09-12T09:46:34.067Z,26.86
2018-09-12T09:47:40.035Z,26.90
2018-09-12T09:48:46.251Z,26.89
2018-09-12T09:49:51.962Z,26.92
2018-09-12T09:50:57.906Z,26.97
2018-09-12T09:52:03.847Z,26.93
2018-09-12T09:53:10.174Z,26.93
2018-09-12T09:54:16.111Z,26.97
2018-09-12T09:55:22.364Z,27.02
2018-09-12T09:56:28.617Z,27.05
2018-09-12T09:57:34.323Z,27.09
2018-09-12T09:58:40.000Z,27.17
2018-09-12T09:59:45.715Z,27.23
2018-09-12T10:00:51.702Z,27.27
2018-09-12T10:03:29.241Z,27.23
2018-09-12T10:04:34.966Z,27.17
2018-09-12T10:05:40.956Z,27.26
2018-09-12T10:06:46.660Z,27.30
2018-09-12T10:07:52.405Z,27.16
2018-09-12T10:08:58.358Z,27.30
2018-09-12T10:10:03.703Z,27.37
2018-09-12T10:11:09.671Z,27.45
2018-09-12T10:12:15.635Z,27.49
2018-09-12T10:13:21.610Z,27.52
2018-09-12T10:14:27.557Z,27.62
2018-09-12T10:15:33.533Z,27.43
2018-09-12T10:16:39.480Z,27.45
2018-09-12T10:17:45.431Z,27.53
2018-09-12T10:18:51.364Z,27.62
2018-09-12T10:19:57.306Z,27.68
2018-09-12T10:21:03.233Z,27.78
2018-09-12T10:22:09.188Z,27.52
2018-09-12T10:23:15.184Z,27.57
2018-09-12T10:24:20.919Z,27.67
2018-09-12T10:25:26.656Z,27.67
2018-09-12T10:26:32.365Z,27.68
2018-09-12T10:27:38.566Z,27.62
2018-09-12T10:28:44.193Z,27.54
2018-09-12T10:29:50.130Z,27.59
2018-09-12T10:30:56.365Z,27.74
2018-09-12T10:32:02.312Z,27.79
2018-09-12T10:33:08.293Z,27.51
2018-09-12T10:34:14.279Z,27.47
2018-09-12T10:35:20.201Z,27.59
2018-09-12T10:36:25.853Z,27.76
2018-09-12T10:37:31.767Z,27.64
2018-09-12T10:38:37.760Z,27.76
2018-09-12T10:39:43.699Z,27.86
2018-09-12T10:40:49.653Z,27.91
2018-09-12T10:41:55.599Z,27.88
2018-09-12T10:43:01.529Z,27.84
2018-09-12T10:44:07.256Z,27.87
2018-09-12T10:45:13.225Z,27.91
2018-09-12T10:46:19.194Z,27.85
2018-09-12T10:47:25.116Z,27.89
2018-09-12T10:48:31.092Z,28.00
2018-09-12T10:49:37.039Z,28.09
2018-09-12T10:50:42.991Z,28.14
2018-09-12T10:51:48.923Z,28.07
2018-09-12T10:52:54.957Z,28.09
2018-09-12T10:54:00.931Z,28.06
2018-09-12T10:55:06.518Z,28.09
2018-09-12T10:56:12.481Z,28.11
2018-09-12T10:57:18.426Z,28.13
2018-09-12T10:58:24.392Z,28.22
2018-09-12T10:59:30.322Z,28.34
2018-09-12T11:00:36.282Z,28.31
2018-09-12T11:01:42.234Z,28.39
2018-09-12T11:02:48.164Z,28.44
2018-09-12T11:03:53.761Z,28.35
2018-09-12T11:04:59.689Z,28.30
2018-09-12T11:06:05.635Z,28.45
2018-09-12T11:07:11.586Z,28.46
2018-09-12T11:08:17.555Z,28.41
2018-09-12T11:09:23.536Z,28.64
2018-09-12T11:10:29.474Z,28.78
2018-09-12T11:11:35.428Z,28.54
2018-09-12T11:12:41.364Z,28.53
2018-09-12T11:13:47.086Z,28.63
2018-09-12T11:14:53.004Z,28.69
2018-09-12T11:15:58.944Z,28.81
2018-09-12T11:17:04.565Z,28.82
2018-09-12T11:18:10.507Z,28.89
2018-09-12T11:19:16.455Z,28.78
2018-09-12T11:20:22.415Z,28.89
2018-09-12T11:21:28.340Z,28.97
2018-09-12T11:22:34.308Z,28.97
2018-09-12T11:23:40.253Z,28.93
2018-09-12T11:24:46.224Z,28.93
2018-09-12T11:25:52.184Z,28.99
2018-09-12T11:26:58.106Z,29.09
2018-09-12T11:28:03.695Z,29.10
2018-09-12T11:29:09.696Z,29.10
2018-09-12T11:30:15.624Z,29.15
2018-09-12T11:31:21.565Z,29.23
2018-09-12T11:32:27.524Z,29.34
2018-09-12T11:33:33.505Z,29.18
2018-09-12T11:34:39.471Z,29.20
2018-09-12T11:35:45.396Z,29.39
2018-09-12T11:36:51.330Z,29.28
2018-09-12T11:37:57.260Z,29.40
2018-09-12T11:39:03.010Z,29.10
2018-09-12T11:40:10.429Z,29.13
2018-09-12T11:41:16.839Z,29.20
2018-09-12T11:42:22.777Z,29.30
2018-09-12T11:43:28.707Z,29.37
2018-09-12T11:44:34.663Z,29.53
2018-09-12T11:45:40.616Z,29.50
2018-09-12T11:46:46.544Z,29.57
2018-09-12T11:47:52.506Z,29.44
2018-09-12T11:48:58.529Z,29.37
2018-09-12T11:50:04.354Z,29.37
2018-09-12T11:51:09.998Z,29.66
2018-09-12T11:52:15.938Z,29.72
2018-09-12T11:53:21.907Z,29.49
2018-09-12T11:54:27.878Z,29.17
2018-09-12T11:55:33.974Z,29.35
2018-09-12T11:56:40.065Z,29.56
2018-09-12T11:57:46.029Z,29.71
2018-09-12T11:58:51.976Z,29.77
2018-09-12T11:59:57.965Z,29.84
2018-09-12T12:01:03.924Z,29.82
2018-09-12T12:02:09.924Z,29.78
2018-09-12T12:03:16.147Z,29.80
2018-09-12T12:04:22.132Z,29.83
2018-09-12T12:05:27.855Z,29.65
2018-09-12T12:06:33.786Z,29.60
2018-09-12T12:07:39.713Z,29.65
2018-09-12T12:08:45.627Z,29.75
2018-09-12T12:09:51.372Z,29.63
2018-09-12T12:10:57.363Z,29.68
2018-09-12T12:12:03.296Z,29.72
2018-09-12T12:13:09.243Z,29.63
2018-09-12T12:14:15.178Z,29.85
2018-09-12T12:15:21.424Z,30.01
2018-09-12T12:16:27.566Z,30.07
2018-09-12T12:17:33.540Z,30.28
2018-09-12T12:18:39.568Z,30.33
2018-09-12T12:19:45.561Z,30.35
2018-09-12T12:20:51.564Z,30.10
2018-09-12T12:21:57.561Z,30.15
2018-09-12T12:23:03.568Z,30.06
2018-09-12T12:24:09.729Z,30.03
2018-09-12T12:25:15.696Z,30.24
2018-09-12T12:26:21.683Z,30.41
2018-09-12T12:27:27.621Z,30.12
2018-09-12T12:28:33.593Z,30.10
2018-09-12T12:29:39.239Z,30.08
2018-09-12T12:30:45.477Z,30.38
2018-09-12T12:31:51.466Z,30.57
2018-09-12T12:32:57.441Z,30.44
2018-09-12T12:34:03.459Z,30.42
2018-09-12T12:35:09.460Z,30.51
2018-09-12T12:36:15.392Z,30.15
2018-09-12T12:37:21.372Z,30.11
2018-09-12T12:38:27.332Z,30.18
2018-09-12T12:39:32.928Z,30.32
2018-09-12T12:40:38.892Z,30.19
2018-09-12T12:41:44.836Z,30.13
2018-09-12T12:42:50.789Z,30.23
2018-09-12T12:43:56.722Z,30.19
2018-09-12T12:45:02.452Z,30.36
2018-09-12T12:46:08.392Z,30.50
2018-09-12T12:47:14.361Z,30.55
2018-09-12T12:48:20.377Z,30.60
2018-09-12T12:49:26.321Z,30.82
2018-09-12T12:50:32.296Z,30.76
2018-09-12T12:51:38.242Z,30.71
2018-09-12T12:52:44.186Z,30.50
2018-09-12T12:53:50.159Z,30.61
2018-09-12T12:54:56.029Z,30.48
2018-09-12T12:56:02.001Z,30.46
2018-09-12T12:57:07.947Z,30.72
2018-09-12T12:58:13.890Z,30.71
2018-09-12T12:59:19.864Z,30.93
2018-09-12T13:00:25.826Z,30.87
2018-09-12T13:01:31.764Z,30.76
2018-09-12T13:02:37.702Z,30.85
2018-09-12T13:03:43.680Z,31.11
2018-09-12T13:04:49.628Z,31.15
2018-09-12T13:05:55.614Z,30.86
2018-09-12T13:07:01.553Z,30.77
2018-09-12T13:08:07.538Z,30.94
2018-09-12T13:09:13.485Z,30.98
2018-09-12T13:10:19.741Z,31.01
2018-09-12T13:11:25.691Z,31.00
2018-09-12T13:12:31.653Z,30.93
2018-09-12T13:13:37.815Z,31.00
2018-09-12T13:14:43.841Z,31.10
2018-09-12T13:15:49.961Z,31.09
2018-09-12T13:16:55.876Z,31.47
2018-09-12T13:18:01.813Z,31.48
2018-09-12T13:19:07.796Z,31.38
2018-09-12T13:20:13.754Z,31.30
2018-09-12T13:21:19.781Z,31.19
2018-09-12T13:22:25.940Z,31.31
2018-09-12T13:23:31.914Z,31.40
2018-09-12T13:24:37.856Z,31.43
2018-09-12T13:25:43.845Z,31.58
2018-09-12T13:26:49.848Z,31.47
2018-09-12T13:27:56.565Z,31.22
2018-09-12T13:29:02.614Z,31.06
2018-09-12T13:30:08.624Z,31.18
2018-09-12T13:31:14.612Z,31.27
2018-09-12T13:32:21.451Z,31.48
2018-09-12T13:33:29.179Z,31.46
2018-09-12T13:34:37.616Z,31.38
2018-09-12T13:35:45.083Z,31.52
2018-09-12T13:36:51.448Z,31.77
2018-09-12T13:37:57.433Z,31.68
2018-09-12T13:39:03.288Z,31.68
2018-09-12T13:40:09.137Z,31.52
2018-09-12T13:41:15.153Z,31.44
2018-09-12T13:42:21.133Z,31.36
2018-09-12T13:43:27.080Z,31.30
2018-09-12T13:44:33.140Z,31.06
2018-09-12T13:45:39.254Z,31.23
2018-09-12T13:46:45.200Z,31.49
2018-09-12T13:47:51.161Z,31.36
2018-09-12T13:48:57.162Z,31.55
2018-09-12T13:50:02.774Z,31.43
2018-09-12T13:51:08.803Z,31.34
2018-09-12T13:52:14.761Z,31.64
2018-09-12T13:53:20.743Z,31.72
2018-09-12T13:54:26.732Z,31.58
2018-09-12T13:55:32.725Z,31.63
2018-09-12T13:56:38.735Z,31.77
2018-09-12T13:57:44.888Z,31.86
2018-09-12T13:58:50.893Z,31.95
2018-09-12T13:59:56.943Z,31.85
2018-09-12T14:01:02.955Z,31.77
2018-09-12T14:02:08.909Z,31.68
2018-09-12T14:03:14.924Z,31.73
2018-09-12T14:04:21.083Z,31.68
2018-09-12T14:05:27.019Z,31.75
2018-09-12T14:06:33.005Z,31.81
2018-09-12T14:07:38.952Z,31.86
2018-09-12T14:08:44.979Z,32.01
2018-09-12T14:09:51.140Z,31.83
2018-09-12T14:10:57.097Z,31.87
2018-09-12T14:12:03.085Z,32.03
2018-09-12T14:13:09.048Z,31.79